CheckWX is a tool to help pilots better visualize weather data.  It is not intended as a substitute for an official pre-flight weather briefing.

12:19:19 UTC

KBID METAR
Block Island State Airport
Block Island, Rhode Island, USA
Current

23 mins ago

KBID 221156Z AUTO 30007KT 10SM CLR 03/M03 A3024 RMK AO2 SLP246 6//// 7//// T00331033 10044 20033
Observed
Feb-22 @ 11:56 UTC
Wind
  • 300° at 7 KTS
Visibility
10 SM
Flight Rules
VFR
Cloud Levels
  • Clear skies
Temperature
C / 37°F
Dewpoint
-3°C / 27°F
Humidity
65%
Altimeter
30.24" Hg
Pressure
1024.6 hPa
Previous

1 hour ago

KBID 221056Z AUTO 28009G14KT 10SM FEW046 03/M03 RMK AO2 SLPNO T00331033 $
Observed
Feb-22 @ 10:56 UTC
Wind
  • 280° at 9 KTS
  • Gusting to KTS
Visibility
10 SM
Flight Rules
VFR
Cloud Levels
  • Few at 4,600' AGL
Temperature
C / 37°F
Dewpoint
-3°C / 27°F
Humidity
65%
Previous

2 hours ago

KBID 220956Z AUTO 10SM FEW047 03/M04 A3020 RMK AO2 SLP232 T00331039
Observed
Feb-22 @ 09:56 UTC
Visibility
10 SM
Flight Rules
VFR
Cloud Levels
  • Few at 4,700' AGL
Temperature
C / 37°F
Dewpoint
-4°C / 25°F
Humidity
60%
Altimeter
30.2" Hg
Pressure
1023.2 hPa